sensor_id;sensor_type;location;lat;lon;timestamp;P1;durP1;ratioP1;P2;durP2;ratioP2
42092;SDS011;28974;50.316;18.960;2023-12-20T00:06:42;23.15;;;10.73;;
42092;SDS011;28974;50.316;18.960;2023-12-20T00:18:42;51.83;;;16.27;;
42092;SDS011;28974;50.316;18.960;2023-12-20T00:30:42;45.72;;;16.63;;
42092;SDS011;28974;50.316;18.960;2023-12-20T00:42:42;45.85;;;17.30;;
42092;SDS011;28974;50.316;18.960;2023-12-20T00:54:43;43.65;;;18.40;;
42092;SDS011;28974;50.316;18.960;2023-12-20T01:06:43;50.97;;;18.00;;
42092;SDS011;28974;50.316;18.960;2023-12-20T01:18:44;35.03;;;15.30;;
42092;SDS011;28974;50.316;18.960;2023-12-20T01:30:45;27.63;;;13.73;;
42092;SDS011;28974;50.316;18.960;2023-12-20T01:42:45;26.38;;;11.82;;
42092;SDS011;28974;50.316;18.960;2023-12-20T01:54:48;23.15;;;9.88;;
42092;SDS011;28974;50.316;18.960;2023-12-20T02:06:49;23.50;;;10.40;;
42092;SDS011;28974;50.316;18.960;2023-12-20T02:18:52;17.10;;;9.38;;
42092;SDS011;28974;50.316;18.960;2023-12-20T02:30:52;18.63;;;8.80;;
42092;SDS011;28974;50.316;18.960;2023-12-20T02:42:52;25.80;;;9.80;;
42092;SDS011;28974;50.316;18.960;2023-12-20T02:54:56;22.02;;;10.50;;
42092;SDS011;28974;50.316;18.960;2023-12-20T03:06:56;27.35;;;9.93;;
42092;SDS011;28974;50.316;18.960;2023-12-20T03:18:56;31.48;;;12.38;;
42092;SDS011;28974;50.316;18.960;2023-12-20T03:30:57;32.85;;;14.85;;
42092;SDS011;28974;50.316;18.960;2023-12-20T03:42:57;39.17;;;16.30;;
42092;SDS011;28974;50.316;18.960;2023-12-20T03:54:57;27.95;;;14.20;;
42092;SDS011;28974;50.316;18.960;2023-12-20T04:06:57;32.17;;;14.35;;
42092;SDS011;28974;50.316;18.960;2023-12-20T04:18:58;44.95;;;19.20;;
42092;SDS011;28974;50.316;18.960;2023-12-20T04:30:58;44.67;;;18.48;;
42092;SDS011;28974;50.316;18.960;2023-12-20T04:42:58;41.72;;;18.45;;
42092;SDS011;28974;50.316;18.960;2023-12-20T04:54:59;32.58;;;15.43;;
42092;SDS011;28974;50.316;18.960;2023-12-20T05:06:59;39.80;;;17.25;;
42092;SDS011;28974;50.316;18.960;2023-12-20T05:18:59;38.67;;;17.25;;
42092;SDS011;28974;50.316;18.960;2023-12-20T05:31:02;48.92;;;20.02;;
42092;SDS011;28974;50.316;18.960;2023-12-20T05:43:02;63.97;;;27.27;;
42092;SDS011;28974;50.316;18.960;2023-12-20T05:55:02;65.28;;;26.63;;
42092;SDS011;28974;50.316;18.960;2023-12-20T06:07:03;68.80;;;30.63;;
42092;SDS011;28974;50.316;18.960;2023-12-20T06:19:03;81.22;;;29.27;;
42092;SDS011;28974;50.316;18.960;2023-12-20T06:31:03;75.70;;;29.13;;
42092;SDS011;28974;50.316;18.960;2023-12-20T06:43:04;58.47;;;24.75;;
42092;SDS011;28974;50.316;18.960;2023-12-20T06:55:04;59.40;;;28.00;;
42092;SDS011;28974;50.316;18.960;2023-12-20T07:07:08;43.17;;;21.20;;
42092;SDS011;28974;50.316;18.960;2023-12-20T07:19:09;57.90;;;23.05;;
42092;SDS011;28974;50.316;18.960;2023-12-20T07:31:09;62.42;;;26.45;;
42092;SDS011;28974;50.316;18.960;2023-12-20T07:43:09;58.20;;;28.30;;
42092;SDS011;28974;50.316;18.960;2023-12-20T07:55:09;66.10;;;29.85;;
42092;SDS011;28974;50.316;18.960;2023-12-20T08:07:10;61.33;;;28.67;;
42092;SDS011;28974;50.316;18.960;2023-12-20T08:19:10;64.40;;;29.50;;
42092;SDS011;28974;50.316;18.960;2023-12-20T08:31:13;52.45;;;26.75;;
42092;SDS011;28974;50.316;18.960;2023-12-20T08:43:14;56.67;;;26.27;;
42092;SDS011;28974;50.316;18.960;2023-12-20T08:55:14;65.65;;;27.83;;
42092;SDS011;28974;50.316;18.960;2023-12-20T09:07:23;46.85;;;22.80;;
42092;SDS011;28974;50.316;18.960;2023-12-20T09:19:24;46.88;;;18.83;;
42092;SDS011;28974;50.316;18.960;2023-12-20T09:31:24;49.08;;;24.85;;
42092;SDS011;28974;50.316;18.960;2023-12-20T09:43:24;44.22;;;21.33;;
42092;SDS011;28974;50.316;18.960;2023-12-20T09:55:25;39.97;;;17.75;;
42092;SDS011;28974;50.316;18.960;2023-12-20T10:07:27;42.88;;;21.10;;
42092;SDS011;28974;50.316;18.960;2023-12-20T10:19:27;41.50;;;17.52;;
42092;SDS011;28974;50.316;18.960;2023-12-20T10:31:31;44.83;;;20.42;;
42092;SDS011;28974;50.316;18.960;2023-12-20T10:43:32;34.65;;;17.27;;
42092;SDS011;28974;50.316;18.960;2023-12-20T10:55:33;42.42;;;19.10;;
42092;SDS011;28974;50.316;18.960;2023-12-20T11:07:38;37.15;;;19.23;;
42092;SDS011;28974;50.316;18.960;2023-12-20T11:31:54;37.05;;;18.92;;
42092;SDS011;28974;50.316;18.960;2023-12-20T11:43:54;38.72;;;19.10;;
42092;SDS011;28974;50.316;18.960;2023-12-20T11:55:55;37.40;;;18.88;;
42092;SDS011;28974;50.316;18.960;2023-12-20T12:07:56;38.38;;;18.95;;
42092;SDS011;28974;50.316;18.960;2023-12-20T12:20:03;41.92;;;19.30;;
42092;SDS011;28974;50.316;18.960;2023-12-20T12:32:04;42.83;;;22.75;;
42092;SDS011;28974;50.316;18.960;2023-12-20T12:44:06;45.40;;;21.23;;
42092;SDS011;28974;50.316;18.960;2023-12-20T12:56:06;40.33;;;16.38;;
42092;SDS011;28974;50.316;18.960;2023-12-20T13:08:06;26.70;;;13.70;;
42092;SDS011;28974;50.316;18.960;2023-12-20T13:20:07;34.92;;;16.33;;
42092;SDS011;28974;50.316;18.960;2023-12-20T13:32:07;63.25;;;31.58;;
42092;SDS011;28974;50.316;18.960;2023-12-20T13:44:07;67.28;;;32.53;;
42092;SDS011;28974;50.316;18.960;2023-12-20T13:56:08;73.72;;;33.33;;
42092;SDS011;28974;50.316;18.960;2023-12-20T14:08:08;80.72;;;34.13;;
42092;SDS011;28974;50.316;18.960;2023-12-20T14:20:10;107.18;;;46.53;;
42092;SDS011;28974;50.316;18.960;2023-12-20T14:32:13;103.05;;;43.88;;
42092;SDS011;28974;50.316;18.960;2023-12-20T14:44:15;81.22;;;35.15;;
42092;SDS011;28974;50.316;18.960;2023-12-20T14:56:17;85.05;;;37.42;;
42092;SDS011;28974;50.316;18.960;2023-12-20T15:08:17;90.60;;;35.75;;
42092;SDS011;28974;50.316;18.960;2023-12-20T15:20:17;86.63;;;38.95;;
42092;SDS011;28974;50.316;18.960;2023-12-20T15:32:18;107.32;;;39.40;;
42092;SDS011;28974;50.316;18.960;2023-12-20T15:44:21;102.95;;;44.25;;
42092;SDS011;28974;50.316;18.960;2023-12-20T15:56:21;102.65;;;41.13;;
42092;SDS011;28974;50.316;18.960;2023-12-20T16:08:21;95.43;;;37.00;;
42092;SDS011;28974;50.316;18.960;2023-12-20T16:20:22;105.88;;;47.30;;
42092;SDS011;28974;50.316;18.960;2023-12-20T16:32:23;128.18;;;57.20;;
42092;SDS011;28974;50.316;18.960;2023-12-20T16:44:23;107.47;;;44.45;;
42092;SDS011;28974;50.316;18.960;2023-12-20T16:56:23;99.30;;;41.85;;
42092;SDS011;28974;50.316;18.960;2023-12-20T17:08:24;92.43;;;37.17;;
42092;SDS011;28974;50.316;18.960;2023-12-20T17:20:24;90.22;;;37.15;;
42092;SDS011;28974;50.316;18.960;2023-12-20T17:32:25;89.38;;;38.13;;
42092;SDS011;28974;50.316;18.960;2023-12-20T17:44:26;63.55;;;24.17;;
42092;SDS011;28974;50.316;18.960;2023-12-20T17:56:27;57.05;;;25.48;;
42092;SDS011;28974;50.316;18.960;2023-12-20T18:08:28;48.80;;;18.20;;
42092;SDS011;28974;50.316;18.960;2023-12-20T18:20:28;50.80;;;21.73;;
42092;SDS011;28974;50.316;18.960;2023-12-20T18:32:29;40.35;;;17.92;;
42092;SDS011;28974;50.316;18.960;2023-12-20T18:44:29;29.25;;;11.55;;
42092;SDS011;28974;50.316;18.960;2023-12-20T18:56:29;34.97;;;15.23;;
42092;SDS011;28974;50.316;18.960;2023-12-20T19:08:29;69.95;;;26.30;;
42092;SDS011;28974;50.316;18.960;2023-12-20T19:20:30;35.13;;;13.82;;
42092;SDS011;28974;50.316;18.960;2023-12-20T19:32:30;44.60;;;16.38;;
42092;SDS011;28974;50.316;18.960;2023-12-20T19:44:30;46.83;;;17.70;;
42092;SDS011;28974;50.316;18.960;2023-12-20T19:56:31;39.05;;;14.63;;
42092;SDS011;28974;50.316;18.960;2023-12-20T20:08:31;48.28;;;17.45;;
42092;SDS011;28974;50.316;18.960;2023-12-20T20:20:31;39.13;;;13.75;;
42092;SDS011;28974;50.316;18.960;2023-12-20T20:32:31;42.40;;;15.73;;
42092;SDS011;28974;50.316;18.960;2023-12-20T20:44:32;39.50;;;14.35;;
42092;SDS011;28974;50.316;18.960;2023-12-20T20:56:32;36.75;;;13.73;;
42092;SDS011;28974;50.316;18.960;2023-12-20T21:08:32;36.20;;;12.85;;
42092;SDS011;28974;50.316;18.960;2023-12-20T21:20:32;36.67;;;13.40;;
42092;SDS011;28974;50.316;18.960;2023-12-20T21:32:33;26.45;;;10.68;;
42092;SDS011;28974;50.316;18.960;2023-12-20T21:44:34;52.03;;;15.75;;
42092;SDS011;28974;50.316;18.960;2023-12-20T21:56:35;24.30;;;8.55;;
42092;SDS011;28974;50.316;18.960;2023-12-20T22:08:36;26.70;;;11.05;;
42092;SDS011;28974;50.316;18.960;2023-12-20T22:20:37;13.20;;;5.90;;
42092;SDS011;28974;50.316;18.960;2023-12-20T22:32:39;23.15;;;9.68;;
42092;SDS011;28974;50.316;18.960;2023-12-20T22:44:39;29.27;;;12.27;;
42092;SDS011;28974;50.316;18.960;2023-12-20T22:56:40;33.28;;;12.10;;
42092;SDS011;28974;50.316;18.960;2023-12-20T23:08:40;30.33;;;11.82;;
42092;SDS011;28974;50.316;18.960;2023-12-20T23:20:40;29.83;;;11.25;;
42092;SDS011;28974;50.316;18.960;2023-12-20T23:32:41;17.25;;;7.05;;
42092;SDS011;28974;50.316;18.960;2023-12-20T23:44:41;23.60;;;9.60;;
42092;SDS011;28974;50.316;18.960;2023-12-20T23:56:41;22.50;;;7.38;;
